Fecha, hora, temperatura, viento dirección y velocidad, humedad y presión.

  • 19-03-2019 23:00:00 | 5.00°C | Noroeste |17.00 km/h | 87.00% | 976.10 hPa
  • 19-03-2019 22:00:00 | 4.60°C | Nordeste |17.00 km/h | 89.00% | 975.70 hPa
  • 19-03-2019 21:00:00 | 5.00°C | Norte |21.00 km/h | 87.00% | 975.10 hPa
  • 19-03-2019 20:00:00 | 5.30°C | Norte |18.00 km/h | 85.00% | 974.80 hPa
  • 19-03-2019 19:00:00 | 5.80°C | Norte |26.00 km/h | 75.00% | 974.60 hPa
  • 19-03-2019 18:00:00 | 6.10°C | Norte |28.00 km/h | 76.00% | 973.80 hPa
  • 19-03-2019 17:00:00 | 5.70°C | Norte |30.00 km/h | 84.00% | 973.70 hPa
  • 19-03-2019 16:00:00 | 8.00°C | Nordeste |28.00 km/h | 72.00% | 973.50 hPa
  • 19-03-2019 15:00:00 | 6.60°C | Norte |25.00 km/h | 81.00% | 973.30 hPa
  • 19-03-2019 14:00:00 | 8.40°C | Norte |27.00 km/h | 64.00% | 973.30 hPa
  • 19-03-2019 13:00:00 | 8.60°C | Norte |27.00 km/h | 64.00% | 973.40 hPa
  • 19-03-2019 12:00:00 | 9.00°C | Norte |33.00 km/h | 63.00% | 972.90 hPa
  • 19-03-2019 11:00:00 | 8.40°C | Norte |30.00 km/h | 67.00% | 972.60 hPa
  • 19-03-2019 10:00:00 | 7.50°C | Norte |33.00 km/h | 74.00% | 972.20 hPa
  • 19-03-2019 09:00:00 | 6.20°C | Norte |26.00 km/h | 84.00% | 972.00 hPa
  • 19-03-2019 08:00:00 | 5.00°C | Noroeste |15.00 km/h | 91.00% | 971.80 hPa
  • 19-03-2019 07:00:00 | 4.30°C | Noroeste |8.00 km/h | 91.00% | 971.60 hPa
  • 19-03-2019 06:00:00 | 4.10°C | Noroeste |6.00 km/h | 90.00% | 971.50 hPa
  • 19-03-2019 05:00:00 | 3.90°C | Noroeste |8.00 km/h | 88.00% | 971.90 hPa
  • 19-03-2019 04:00:00 | 3.70°C | Noroeste |10.00 km/h | 89.00% | 972.00 hPa
  • 19-03-2019 03:00:00 | 4.00°C | Noroeste |11.00 km/h | 90.00% | 972.50 hPa
  • 19-03-2019 02:00:00 | 4.20°C | Norte |12.00 km/h | 90.00% | 972.90 hPa
  • 19-03-2019 01:00:00 | 4.20°C | Noroeste |9.00 km/h | 93.00% | 972.80 hPa
  • 19-03-2019 00:00:00 | 4.60°C | Noroeste |6.00 km/h | 91.00% | 973.30 hPa
    • diseño web asturias Información sobre el estado de las mareas, altura de la marejada, temperatura del agua y otros datos de Gijón en Asturias.

      Surf Gijón